Time;durP1;ratioP1;P1;durP2;ratioP2;P2;SDS_P1;SDS_P2;PMS_P1;PMS_P2;Temp;Humidity;BMP_temperature;BMP_pressure;BME280_temperature;BME280_humidity;BME280_pressure;Samples;Min_cycle;Max_cycle;Signal;HPM_P1;HPM_P2
2022/03/25 00:02:26;;;;;;;85.20;25.88;;;9.50;99.90;;;;;;6167066;23;20035;-84
2022/03/25 00:04:56;;;;;;;71.05;25.45;;;9.30;99.90;;;;;;6191759;23;20027;-84
2022/03/25 00:07:23;;;;;;;73.80;24.55;;;9.30;99.90;;;;;;6161915;23;20059;-85
2022/03/25 00:09:49;;;;;;;54.83;20.58;;;9.20;99.90;;;;;;6156967;23;20009;-84
2022/03/25 00:12:16;;;;;;;59.08;22.40;;;9.00;99.90;;;;;;6186700;23;20012;-85
2022/03/25 00:14:43;;;;;;;53.63;19.98;;;8.90;99.90;;;;;;6186634;23;20365;-85
2022/03/25 00:17:09;;;;;;;54.47;20.00;;;9.00;99.90;;;;;;6161929;23;20055;-85
2022/03/25 00:19:36;;;;;;;48.85;18.38;;;8.80;99.90;;;;;;6162044;23;20527;-85
2022/03/25 00:22:03;;;;;;;49.67;18.67;;;8.90;99.90;;;;;;6186589;23;20386;-84
2022/03/25 00:24:30;;;;;;;52.35;19.95;;;8.80;99.90;;;;;;6162012;23;20005;-84
2022/03/25 00:26:56;;;;;;;44.55;19.33;;;8.80;99.90;;;;;;6186843;23;20406;-85
2022/03/25 00:29:23;;;;;;;47.15;18.90;;;8.80;99.90;;;;;;6161702;23;20005;-84
2022/03/25 00:31:49;;;;;;;57.03;19.45;;;8.80;99.90;;;;;;6186703;23;20347;-84
2022/03/25 00:34:16;;;;;;;54.17;18.08;;;8.70;99.90;;;;;;6186412;23;20021;-84
2022/03/25 00:36:43;;;;;;;51.92;18.48;;;8.70;99.90;;;;;;6186577;23;20009;-85
2022/03/25 00:39:09;;;;;;;47.33;18.60;;;8.60;99.90;;;;;;6161768;23;20085;-84
2022/03/25 00:41:37;;;;;;;52.25;17.88;;;8.60;99.90;;;;;;6186454;23;20005;-84
2022/03/25 00:44:07;;;;;;;49.08;19.13;;;8.60;99.90;;;;;;6161725;23;20013;-84
2022/03/25 00:46:37;;;;;;;45.72;16.58;;;8.60;99.90;;;;;;6185807;23;20029;-83
2022/03/25 00:49:06;;;;;;;47.55;17.27;;;8.50;99.90;;;;;;6161549;23;20009;-84
2022/03/25 00:51:34;;;;;;;41.75;16.92;;;8.50;99.90;;;;;;6161699;23;20339;-84
2022/03/25 00:54:04;;;;;;;34.60;14.80;;;8.50;99.90;;;;;;6186045;23;20020;-84
2022/03/25 00:56:30;;;;;;;35.30;15.88;;;8.50;99.90;;;;;;6186091;23;20023;-84
2022/03/25 00:58:57;;;;;;;43.58;15.70;;;8.50;99.90;;;;;;6186270;23;20009;-84
2022/03/25 01:01:25;;;;;;;34.20;15.00;;;8.40;99.90;;;;;;6161631;23;20033;-84
2022/03/25 01:03:52;;;;;;;36.92;13.75;;;8.40;99.90;;;;;;6186972;23;20423;-84
2022/03/25 01:06:19;;;;;;;38.70;14.73;;;8.40;99.90;;;;;;6161630;23;20423;-84
2022/03/25 01:08:46;;;;;;;36.85;14.25;;;8.40;99.90;;;;;;6186349;23;20009;-84
2022/03/25 01:11:12;;;;;;;34.10;13.40;;;8.30;99.90;;;;;;6186224;23;20001;-83
2022/03/25 01:13:39;;;;;;;31.23;13.70;;;8.30;99.90;;;;;;6186156;23;20017;-85
2022/03/25 01:16:09;;;;;;;35.85;13.63;;;8.20;99.90;;;;;;6185710;23;20025;-84
2022/03/25 01:18:38;;;;;;;33.50;13.40;;;8.10;99.90;;;;;;6185676;23;20029;-84
2022/03/25 01:21:05;;;;;;;30.17;13.13;;;8.20;99.90;;;;;;6186218;23;20497;-84
2022/03/25 01:23:31;;;;;;;27.95;12.20;;;8.20;99.90;;;;;;6186130;23;20016;-84
2022/03/25 01:25:58;;;;;;;24.40;11.30;;;8.20;99.90;;;;;;6161620;23;20005;-84
2022/03/25 01:28:25;;;;;;;30.90;12.18;;;8.10;99.90;;;;;;6186018;23;20016;-84
2022/03/25 01:30:52;;;;;;;30.98;12.90;;;8.10;99.90;;;;;;6161258;23;20056;-84
2022/03/25 01:33:18;;;;;;;34.47;12.10;;;7.90;99.90;;;;;;6161302;23;20454;-84
2022/03/25 01:35:45;;;;;;;31.85;12.60;;;7.80;99.90;;;;;;6161213;23;20004;-84
2022/03/25 01:38:13;;;;;;;28.27;13.23;;;7.80;99.90;;;;;;6161095;23;20032;-83
2022/03/25 01:40:40;;;;;;;35.97;14.02;;;7.70;99.90;;;;;;6185521;23;20009;-84
2022/03/25 01:43:08;;;;;;;32.65;13.52;;;7.70;99.90;;;;;;6185878;23;20013;-84
2022/03/25 01:45:37;;;;;;;38.67;14.85;;;7.60;99.90;;;;;;6160965;23;20001;-83
2022/03/25 01:48:10;;;;;;;36.72;14.48;;;7.50;99.90;;;;;;6161123;23;20032;-84
2022/03/25 01:50:39;;;;;;;35.75;14.18;;;7.40;99.90;;;;;;6185956;23;20037;-84
2022/03/25 01:53:14;;;;;;;39.08;15.60;;;7.40;99.90;;;;;;6161010;23;20013;-84
2022/03/25 01:55:53;;;;;;;49.97;16.08;;;7.40;99.90;;;;;;6160795;23;20024;-84
2022/03/25 01:58:21;;;;;;;46.58;17.02;;;7.30;99.90;;;;;;6160939;23;20012;-84
2022/03/25 02:00:48;;;;;;;46.47;15.75;;;7.20;99.90;;;;;;6185940;23;20032;-84
2022/03/25 02:03:16;;;;;;;53.17;18.30;;;7.10;99.90;;;;;;6185656;23;20006;-83
2022/03/25 02:05:48;;;;;;;39.60;16.60;;;7.10;99.90;;;;;;6185721;23;20005;-84
2022/03/25 02:08:17;;;;;;;42.10;16.80;;;7.10;99.90;;;;;;6185432;23;20032;-84
2022/03/25 02:10:45;;;;;;;43.17;16.58;;;7.10;99.90;;;;;;6160888;23;20080;-85
2022/03/25 02:13:13;;;;;;;38.25;15.43;;;7.10;99.90;;;;;;6185125;23;20096;-84
2022/03/25 02:15:47;;;;;;;41.95;16.13;;;7.10;99.90;;;;;;6160546;23;20005;-83
2022/03/25 02:18:18;;;;;;;46.78;16.50;;;7.10;99.90;;;;;;6160812;23;20009;-84
2022/03/25 02:20:47;;;;;;;46.80;16.40;;;7.10;99.90;;;;;;6160567;23;20021;-83
2022/03/25 02:23:17;;;;;;;38.50;16.02;;;7.10;99.90;;;;;;6185010;23;20028;-84
2022/03/25 02:25:48;;;;;;;48.42;17.15;;;7.10;99.90;;;;;;6185486;23;20088;-84
2022/03/25 02:28:15;;;;;;;46.17;16.13;;;7.00;99.90;;;;;;6185662;23;20447;-84
2022/03/25 02:30:45;;;;;;;38.13;15.07;;;7.00;99.90;;;;;;6160920;23;20016;-85
2022/03/25 02:33:14;;;;;;;41.60;15.73;;;7.00;99.90;;;;;;6185102;23;20092;-84
2022/03/25 02:35:51;;;;;;;40.83;16.05;;;6.90;99.90;;;;;;6185449;23;20436;-85
2022/03/25 02:38:23;;;;;;;35.28;14.55;;;6.90;99.90;;;;;;6160433;23;20024;-84
2022/03/25 02:40:51;;;;;;;41.05;15.80;;;6.80;99.90;;;;;;6185522;23;20321;-84
2022/03/25 02:43:18;;;;;;;38.40;15.75;;;6.80;99.90;;;;;;6160541;23;20001;-84
2022/03/25 02:45:50;;;;;;;36.38;15.10;;;6.80;99.90;;;;;;6184293;23;20013;-84
2022/03/25 02:48:17;;;;;;;32.35;14.05;;;6.70;99.90;;;;;;6136296;23;20390;-84
2022/03/25 02:50:46;;;;;;;33.15;14.15;;;6.80;99.90;;;;;;6160496;23;20423;-84
2022/03/25 02:53:13;;;;;;;27.88;13.02;;;6.70;99.90;;;;;;6185027;23;20017;-84
2022/03/25 02:55:41;;;;;;;29.35;12.75;;;6.70;99.90;;;;;;6180237;23;20073;-84
2022/03/25 02:58:08;;;;;;;29.83;13.30;;;6.70;99.90;;;;;;6155744;23;20088;-84
2022/03/25 03:00:35;;;;;;;26.90;10.10;;;6.70;99.90;;;;;;6131268;23;20013;-84
2022/03/25 03:03:03;;;;;;;22.40;9.75;;;6.70;99.90;;;;;;6156073;23;20005;-84
2022/03/25 03:05:30;;;;;;;22.00;10.50;;;6.80;99.90;;;;;;6155688;23;20009;-85
2022/03/25 03:07:58;;;;;;;30.23;11.77;;;6.80;99.90;;;;;;6155703;23;20013;-84
2022/03/25 03:10:25;;;;;;;28.08;10.73;;;6.90;99.90;;;;;;6155905;23;20005;-84
2022/03/25 03:12:53;;;;;;;26.75;10.55;;;6.90;99.90;;;;;;6155496;23;20009;-84
2022/03/25 03:15:22;;;;;;;31.25;11.30;;;6.80;99.90;;;;;;6155676;23;20010;-85
2022/03/25 03:17:49;;;;;;;25.30;10.32;;;6.70;99.90;;;;;;6155514;23;20044;-85
2022/03/25 03:20:17;;;;;;;25.00;10.75;;;6.70;99.90;;;;;;6155545;23;20009;-85
2022/03/25 03:22:45;;;;;;;29.73;11.10;;;6.80;99.90;;;;;;6155751;23;20064;-85
2022/03/25 03:25:11;;;;;;;29.73;12.73;;;6.80;99.90;;;;;;6155529;23;20001;-84
2022/03/25 03:27:38;;;;;;;23.05;11.00;;;6.70;99.90;;;;;;6155452;23;20013;-84
2022/03/25 03:30:11;;;;;;;26.88;11.60;;;6.70;99.90;;;;;;6155802;23;20006;-84
2022/03/25 03:32:38;;;;;;;25.55;10.95;;;6.50;99.90;;;;;;6180298;23;20049;-84
2022/03/25 03:35:06;;;;;;;32.17;13.05;;;6.40;99.90;;;;;;6155859;23;20014;-84
2022/03/25 03:37:45;;;;;;;33.45;11.00;;;6.40;99.90;;;;;;6180138;23;20435;-85
2022/03/25 03:40:17;;;;;;;28.42;10.38;;;6.50;99.90;;;;;;6155603;23;20016;-84
2022/03/25 03:42:45;;;;;;;26.02;10.05;;;6.60;99.90;;;;;;6155585;23;20087;-84
2022/03/25 03:45:13;;;;;;;30.88;10.85;;;6.50;99.90;;;;;;6155521;23;20036;-84
2022/03/25 03:47:41;;;;;;;25.65;10.10;;;6.40;99.90;;;;;;6155504;23;20090;-85
2022/03/25 03:50:11;;;;;;;29.73;10.68;;;6.50;99.90;;;;;;6155530;23;20010;-84
2022/03/25 03:52:40;;;;;;;27.33;11.27;;;6.50;99.90;;;;;;6155537;23;20017;-85
2022/03/25 03:55:08;;;;;;;27.55;11.52;;;6.60;99.90;;;;;;6155466;23;20014;-85
2022/03/25 03:57:36;;;;;;;25.42;10.82;;;6.50;99.90;;;;;;6155076;23;20013;-85
2022/03/25 04:00:10;;;;;;;27.00;11.15;;;6.50;99.90;;;;;;6130770;23;20014;-85
2022/03/25 04:02:41;;;;;;;24.77;10.80;;;6.50;99.90;;;;;;6156075;23;20144;-85
2022/03/25 04:05:10;;;;;;;29.58;11.70;;;6.40;99.90;;;;;;6157207;23;20006;-84
2022/03/25 04:07:47;;;;;;;22.02;10.20;;;6.50;99.90;;;;;;6132434;23;20336;-85
2022/03/25 04:10:15;;;;;;;26.05;10.75;;;6.50;99.90;;;;;;6132514;23;20033;-84
2022/03/25 04:12:41;;;;;;;27.58;10.55;;;6.50;99.90;;;;;;6132505;23;20076;-84
2022/03/25 04:15:10;;;;;;;24.30;10.52;;;6.50;99.90;;;;;;6132512;23;20052;-84
2022/03/25 04:17:38;;;;;;;24.17;11.07;;;6.60;99.90;;;;;;6157025;23;20084;-84
2022/03/25 04:20:06;;;;;;;26.48;9.90;;;6.60;99.90;;;;;;6156999;23;20099;-84
2022/03/25 04:22:33;;;;;;;22.77;10.90;;;6.50;99.90;;;;;;6156841;23;20006;-85
2022/03/25 04:25:00;;;;;;;28.38;11.18;;;6.60;99.90;;;;;;6132414;23;20340;-84
2022/03/25 04:27:26;;;;;;;31.55;11.48;;;6.60;99.90;;;;;;6132308;23;20089;-84
2022/03/25 04:29:55;;;;;;;29.90;11.27;;;6.60;99.90;;;;;;6132193;23;20008;-83
2022/03/25 04:32:22;;;;;;;26.20;11.15;;;6.60;99.90;;;;;;6132625;23;20005;-84
2022/03/25 04:34:48;;;;;;;24.13;11.02;;;6.60;99.90;;;;;;6132164;23;20028;-84
2022/03/25 04:37:15;;;;;;;26.15;11.18;;;6.60;99.90;;;;;;6132144;23;20005;-83
2022/03/25 04:39:41;;;;;;;31.75;11.70;;;6.60;99.90;;;;;;6156750;23;20084;-86
2022/03/25 04:42:10;;;;;;;23.63;10.80;;;6.60;99.90;;;;;;6156713;23;20024;-86
2022/03/25 04:44:36;;;;;;;20.58;10.95;;;6.60;99.90;;;;;;6132389;23;20034;-85
2022/03/25 04:47:03;;;;;;;22.15;10.98;;;6.60;99.90;;;;;;6132153;23;20013;-85
2022/03/25 04:49:36;;;;;;;25.75;10.82;;;6.60;99.90;;;;;;6132171;23;20005;-85
2022/03/25 04:52:03;;;;;;;31.05;12.20;;;6.60;99.90;;;;;;6156692;23;20014;-84
2022/03/25 04:54:29;;;;;;;34.70;11.63;;;6.60;99.90;;;;;;6156895;23;20014;-84
2022/03/25 04:56:56;;;;;;;30.52;11.45;;;6.60;99.90;;;;;;6152916;23;20025;-84
2022/03/25 04:59:23;;;;;;;31.50;11.70;;;6.60;99.90;;;;;;6161667;23;20016;-84
2022/03/25 05:01:49;;;;;;;27.70;12.27;;;6.60;99.90;;;;;;6186165;23;20055;-84
2022/03/25 05:04:16;;;;;;;26.88;12.32;;;6.60;99.90;;;;;;6186299;23;20009;-84
2022/03/25 05:06:42;;;;;;;31.63;12.02;;;6.60;99.90;;;;;;6161369;23;20446;-84
2022/03/25 05:09:10;;;;;;;29.08;11.73;;;6.60;99.90;;;;;;6161533;23;20398;-85
2022/03/25 05:11:37;;;;;;;26.45;11.68;;;6.60;99.90;;;;;;6186262;23;20087;-86
2022/03/25 05:14:04;;;;;;;28.05;11.88;;;6.60;99.90;;;;;;6185696;23;20017;-89
2022/03/25 05:16:31;;;;;;;29.40;12.65;;;6.60;99.90;;;;;;6161227;23;20009;-86
2022/03/25 05:18:57;;;;;;;25.55;12.15;;;6.70;99.90;;;;;;6186149;23;20455;-86
2022/03/25 05:21:27;;;;;;;28.95;12.30;;;6.70;99.90;;;;;;6137012;23;20005;-84
2022/03/25 05:23:54;;;;;;;27.60;12.40;;;6.70;99.90;;;;;;6161608;23;20017;-86
2022/03/25 05:26:20;;;;;;;34.42;12.60;;;6.70;99.90;;;;;;6161650;23;20466;-89
2022/03/25 05:28:47;;;;;;;27.63;12.18;;;6.70;99.90;;;;;;6186320;23;20009;-89
2022/03/25 05:31:14;;;;;;;32.72;13.13;;;6.70;99.90;;;;;;6161257;23;20005;-84
2022/03/25 05:33:40;;;;;;;34.13;12.98;;;6.70;99.90;;;;;;6160970;23;20027;-85
2022/03/25 05:36:07;;;;;;;34.10;12.43;;;6.80;99.90;;;;;;6161380;23;20001;-84
2022/03/25 05:38:34;;;;;;;32.22;12.23;;;6.80;99.90;;;;;;6161052;23;20013;-84
2022/03/25 05:41:00;;;;;;;25.80;11.70;;;6.90;99.90;;;;;;6185953;23;20016;-85
2022/03/25 05:43:28;;;;;;;28.63;11.55;;;7.00;99.90;;;;;;6161122;23;20454;-84
2022/03/25 05:45:55;;;;;;;24.55;10.57;;;7.10;99.90;;;;;;6186041;23;20466;-85
2022/03/25 05:48:22;;;;;;;24.20;11.90;;;7.20;99.90;;;;;;6161745;23;20080;-85
2022/03/25 05:50:49;;;;;;;26.15;11.73;;;7.40;99.90;;;;;;6162024;23;20074;-84
2022/03/25 05:53:16;;;;;;;28.75;12.48;;;7.50;99.90;;;;;;6161223;23;20009;-84
2022/03/25 05:55:42;;;;;;;28.10;11.68;;;7.60;99.90;;;;;;6155895;23;20044;-84
2022/03/25 05:58:11;;;;;;;24.88;11.25;;;7.70;99.90;;;;;;6131433;23;20423;-86
2022/03/25 06:00:38;;;;;;;26.85;11.10;;;7.90;99.90;;;;;;6131516;23;20032;-84
2022/03/25 06:03:05;;;;;;;25.85;11.73;;;7.80;99.90;;;;;;6131285;23;20463;-85
2022/03/25 06:05:32;;;;;;;31.08;13.27;;;7.80;99.90;;;;;;6131291;23;20006;-85
2022/03/25 06:07:58;;;;;;;25.40;12.32;;;8.00;99.90;;;;;;6107191;23;20009;-88
2022/03/25 06:10:25;;;;;;;28.80;12.25;;;8.20;99.90;;;;;;6131250;23;20013;-86
2022/03/25 06:12:52;;;;;;;25.50;11.55;;;8.40;99.90;;;;;;6131479;23;20001;-85
2022/03/25 06:15:18;;;;;;;23.27;11.80;;;8.50;99.90;;;;;;6131359;23;20028;-86
2022/03/25 06:17:56;;;;;;;25.83;11.10;;;8.60;99.90;;;;;;6131242;23;20009;-83
2022/03/25 06:20:27;;;;;;;27.58;10.50;;;8.80;99.90;;;;;;6131250;23;20013;-87
2022/03/25 06:22:55;;;;;;;30.27;12.00;;;8.90;99.90;;;;;;6131210;23;20016;-86
2022/03/25 06:25:21;;;;;;;34.55;11.27;;;9.00;99.90;;;;;;6130896;23;20013;-85
2022/03/25 06:27:54;;;;;;;31.75;11.65;;;9.00;99.90;;;;;;6131238;23;20006;-88
2022/03/25 06:30:26;;;;;;;26.48;10.85;;;9.10;99.90;;;;;;6131404;23;20019;-86
2022/03/25 06:33:09;;;;;;;23.80;10.63;;;9.10;99.90;;;;;;6131464;23;20343;-87
2022/03/25 06:35:38;;;;;;;22.42;10.45;;;9.20;99.90;;;;;;6131105;23;20013;-86
2022/03/25 06:38:07;;;;;;;28.80;11.02;;;9.40;99.90;;;;;;6131315;23;20013;-86
2022/03/25 06:40:34;;;;;;;26.80;10.45;;;9.50;99.90;;;;;;6131332;23;20084;-87
2022/03/25 06:43:01;;;;;;;25.98;10.18;;;9.70;99.90;;;;;;6131009;23;20009;-85
2022/03/25 06:45:28;;;;;;;25.08;10.77;;;9.90;99.90;;;;;;6131185;23;20017;-87
2022/03/25 06:47:57;;;;;;;22.33;10.10;;;10.00;99.90;;;;;;6131222;23;20005;-86
2022/03/25 06:50:25;;;;;;;22.17;8.82;;;10.10;99.90;;;;;;6131238;23;20037;-87
2022/03/25 06:52:52;;;;;;;20.73;9.52;;;10.30;99.90;;;;;;6106951;23;20033;-87
2022/03/25 06:55:20;;;;;;;18.15;8.82;;;10.40;99.90;;;;;;6107245;23;20018;-87
2022/03/25 06:57:49;;;;;;;20.40;10.02;;;10.60;99.90;;;;;;6161038;23;20016;-87
2022/03/25 07:00:18;;;;;;;27.67;10.82;;;10.80;99.90;;;;;;6185584;23;20013;-87
2022/03/25 07:02:45;;;;;;;20.42;9.07;;;10.90;99.90;;;;;;6185465;23;20009;-87
2022/03/25 07:05:13;;;;;;;22.55;9.30;;;11.00;99.90;;;;;;6160814;23;20012;-87
2022/03/25 07:07:41;;;;;;;21.95;9.65;;;11.10;99.90;;;;;;6160538;23;20009;-87
2022/03/25 07:10:11;;;;;;;25.55;9.68;;;11.30;99.90;;;;;;6160912;23;20076;-87
2022/03/25 07:12:40;;;;;;;22.40;8.75;;;11.40;99.90;;;;;;6160367;23;20049;-87
2022/03/25 07:15:07;;;;;;;17.92;8.50;;;11.60;99.90;;;;;;6160293;23;20024;-87
2022/03/25 07:17:37;;;;;;;17.40;8.45;;;11.80;99.90;;;;;;6160365;23;20005;-87
2022/03/25 07:20:07;;;;;;;15.80;8.05;;;11.90;99.90;;;;;;6160445;23;20016;-88
2022/03/25 07:22:36;;;;;;;19.13;8.15;;;12.00;99.90;;;;;;6160315;23;20009;-88
2022/03/25 07:25:04;;;;;;;16.08;8.25;;;12.00;99.90;;;;;;6185674;23;20009;-88
2022/03/25 07:27:31;;;;;;;15.70;8.20;;;12.10;99.90;;;;;;6160492;23;20013;-88
2022/03/25 07:29:58;;;;;;;24.40;8.45;;;12.30;99.90;;;;;;6160631;23;20015;-88
2022/03/25 07:32:25;;;;;;;18.73;8.63;;;12.60;99.90;;;;;;6160350;23;20336;-87
2022/03/25 07:34:51;;;;;;;15.05;7.85;;;12.80;99.90;;;;;;6160467;23;20447;-87
2022/03/25 07:37:18;;;;;;;19.33;8.85;;;13.00;99.90;;;;;;6160446;23;20450;-88
2022/03/25 07:39:45;;;;;;;19.85;7.70;;;13.10;99.90;;;;;;6162319;23;20098;-87
2022/03/25 07:42:12;;;;;;;21.00;8.23;;;13.20;99.90;;;;;;6162340;23;20005;-88
2022/03/25 07:44:39;;;;;;;18.23;7.93;;;13.40;99.90;;;;;;6162386;23;20104;-87
2022/03/25 07:47:07;;;;;;;19.70;7.15;;;13.80;99.90;;;;;;6162172;23;20009;-87
2022/03/25 07:49:35;;;;;;;25.15;9.23;;;13.90;99.90;;;;;;6162177;23;20005;-88
2022/03/25 07:52:04;;;;;;;27.17;8.45;;;13.90;99.90;;;;;;6162045;23;20035;-87
2022/03/25 07:54:31;;;;;;;18.92;7.32;;;14.00;99.90;;;;;;6162052;23;20043;-87
2022/03/25 07:56:58;;;;;;;19.02;8.20;;;14.20;99.90;;;;;;6181713;23;20348;-87
2022/03/25 07:59:26;;;;;;;20.85;8.52;;;14.20;99.90;;;;;;6157371;23;20014;-87
2022/03/25 08:01:53;;;;;;;18.85;8.30;;;14.40;99.90;;;;;;6157141;23;20008;-88
2022/03/25 08:04:21;;;;;;;19.83;7.72;;;14.30;99.90;;;;;;6157278;23;20005;-88
2022/03/25 08:06:48;;;;;;;22.23;8.77;;;14.20;99.90;;;;;;6156980;23;20010;-87
2022/03/25 08:09:14;;;;;;;20.48;8.38;;;14.60;99.90;;;;;;6157130;23;20021;-88
2022/03/25 08:11:42;;;;;;;37.53;10.00;;;14.70;99.90;;;;;;6157092;23;20005;-86
2022/03/25 08:14:09;;;;;;;24.60;9.38;;;14.60;99.90;;;;;;6157156;23;20017;-87
2022/03/25 08:16:35;;;;;;;25.30;7.32;;;15.00;99.90;;;;;;6157594;23;20009;-89
2022/03/25 08:19:02;;;;;;;20.42;7.60;;;15.20;99.90;;;;;;6156887;23;20054;-87
2022/03/25 08:21:29;;;;;;;16.92;7.40;;;15.70;99.90;;;;;;6156874;23;20006;-91
2022/03/25 08:51:46;;;;;;;13.65;5.18;;;17.60;99.90;;;;;;6227751;22;20504;-93
2022/03/25 09:01:04;;;;;;;9.77;5.22;;;16.60;99.90;;;;;;6234741;23;20020;-92
2022/03/25 09:03:34;;;;;;;11.00;5.63;;;16.50;99.90;;;;;;6148327;23;20009;-93
2022/03/25 09:06:15;;;;;;;12.13;5.18;;;16.40;99.90;;;;;;6164221;23;20005;-93
2022/03/25 13:43:12;;;;;;;12.10;5.25;;;18.30;99.90;;;;;;6089205;23;20007;-93
2022/03/25 13:46:27;;;;;;;11.02;4.60;;;18.30;99.90;;;;;;6167988;23;20004;-93
2022/03/25 13:49:27;;;;;;;8.52;4.53;;;18.30;99.90;;;;;;6168972;23;20383;-94
2022/03/25 13:52:26;;;;;;;11.43;5.25;;;18.30;99.90;;;;;;6138635;23;20012;-93
2022/03/25 13:56:22;;;;;;;10.70;5.22;;;18.30;99.90;;;;;;6176788;23;20017;-93
2022/03/25 14:17:51;;;;;;;9.77;5.20;;;18.20;99.90;;;;;;5203738;22;22403439;-94
2022/03/25 14:20:26;;;;;;;12.90;4.78;;;18.20;99.90;;;;;;6045903;23;20033;-93
2022/03/25 14:23:34;;;;;;;;;;;;;;;;;;;;;
2022/03/25 14:30:03;;;;;;;11.07;5.15;;;18.20;99.90;;;;;;6218750;23;20028;-94
2022/03/25 14:32:29;;;;;;;9.50;4.38;;;18.10;99.90;;;;;;6185271;23;20017;-93
2022/03/25 14:34:59;;;;;;;10.50;4.22;;;18.20;99.90;;;;;;6186433;23;20021;-93
2022/03/25 14:37:26;;;;;;;7.22;4.38;;;18.10;99.90;;;;;;6186670;23;20080;-94
2022/03/25 14:39:55;;;;;;;13.45;4.50;;;18.10;99.90;;;;;;6162957;23;20040;-93
2022/03/25 14:42:23;;;;;;;11.13;5.07;;;18.10;99.90;;;;;;6186439;23;20035;-93
2022/03/25 14:44:50;;;;;;;11.32;4.63;;;18.20;99.90;;;;;;6188031;23;20017;-93
2022/03/25 14:47:17;;;;;;;12.05;5.45;;;18.20;99.90;;;;;;6185766;23;20064;-93
2022/03/25 14:49:45;;;;;;;13.02;4.68;;;18.10;99.90;;;;;;6203599;23;20008;-92
2022/03/25 14:52:12;;;;;;;9.18;4.15;;;18.10;99.90;;;;;;6190995;23;20031;-92
2022/03/25 14:54:40;;;;;;;9.77;5.20;;;18.10;99.90;;;;;;6190724;23;20013;-92
2022/03/25 14:57:11;;;;;;;9.20;4.03;;;18.00;99.90;;;;;;6166236;23;20005;-93
2022/03/25 14:59:40;;;;;;;8.77;4.70;;;17.90;99.90;;;;;;6190993;23;20012;-92
2022/03/25 15:02:11;;;;;;;12.40;4.68;;;17.90;99.90;;;;;;6191454;23;20136;-94
2022/03/25 15:04:39;;;;;;;10.68;5.28;;;17.90;99.90;;;;;;6168320;23;20013;-90
2022/03/25 15:07:07;;;;;;;10.40;4.63;;;17.80;99.90;;;;;;6194374;23;20327;-92
2022/03/25 15:09:35;;;;;;;12.50;5.15;;;17.90;99.90;;;;;;6210851;23;19993;-92
2022/03/25 15:12:02;;;;;;;10.20;4.65;;;17.90;99.90;;;;;;6216804;23;19997;-92
2022/03/25 15:14:29;;;;;;;9.48;4.70;;;17.80;99.90;;;;;;6200399;23;20021;-93
2022/03/25 15:16:56;;;;;;;10.65;5.05;;;17.80;99.90;;;;;;6166001;23;20511;-92
2022/03/25 15:19:23;;;;;;;14.90;5.35;;;17.80;99.90;;;;;;6190440;23;20430;-93
2022/03/25 15:21:50;;;;;;;7.85;4.72;;;17.80;99.90;;;;;;6190387;23;20057;-91
2022/03/25 15:24:17;;;;;;;9.38;5.00;;;17.80;99.90;;;;;;6190439;23;20015;-94
2022/03/25 15:26:44;;;;;;;10.20;4.90;;;17.90;99.90;;;;;;6190235;23;20037;-93
2022/03/25 15:29:12;;;;;;;8.60;3.92;;;17.90;99.90;;;;;;6185093;23;20021;-92
2022/03/25 15:34:34;;;;;;;8.13;3.97;;;17.80;99.90;;;;;;6185629;23;20439;-92
2022/03/25 15:37:01;;;;;;;9.80;4.70;;;17.70;99.90;;;;;;6160484;23;20009;-94
2022/03/25 15:42:15;;;;;;;15.88;5.18;;;17.50;99.90;;;;;;6185593;23;20380;-92
2022/03/25 15:44:42;;;;;;;9.13;4.38;;;17.50;99.90;;;;;;6160666;23;20005;-91
2022/03/25 15:47:09;;;;;;;12.20;4.90;;;17.40;99.90;;;;;;6160592;23;20015;-92
2022/03/25 15:49:43;;;;;;;13.07;4.95;;;17.40;99.90;;;;;;6162315;23;20009;-93
2022/03/25 15:52:11;;;;;;;10.18;4.10;;;17.40;99.90;;;;;;6161798;23;20051;-93
2022/03/25 15:54:38;;;;;;;11.07;4.47;;;17.40;99.90;;;;;;6160923;23;20063;-93
2022/03/25 15:57:05;;;;;;;8.02;4.20;;;17.40;99.90;;;;;;6161725;23;20009;-93
2022/03/25 15:59:31;;;;;;;9.82;4.95;;;17.40;99.90;;;;;;6162030;23;20423;-92
2022/03/25 16:01:59;;;;;;;10.45;4.68;;;17.30;99.90;;;;;;6162828;23;20012;-92
2022/03/25 16:04:26;;;;;;;10.02;5.75;;;17.20;99.90;;;;;;6162407;23;20422;-93
2022/03/25 16:06:53;;;;;;;14.93;5.15;;;17.20;99.90;;;;;;6162292;23;20012;-93
2022/03/25 16:09:20;;;;;;;7.20;5.05;;;17.10;99.90;;;;;;6162358;23;20023;-94
2022/03/25 16:11:47;;;;;;;13.27;5.00;;;17.00;99.90;;;;;;6162305;23;20001;-92
2022/03/25 16:14:16;;;;;;;10.73;5.47;;;16.90;99.90;;;;;;6162072;23;20398;-93
2022/03/25 16:16:43;;;;;;;13.02;7.07;;;16.90;99.90;;;;;;6162439;23;20001;-93
2022/03/25 16:19:10;;;;;;;17.98;6.85;;;16.80;99.90;;;;;;6162097;23;20009;-92
2022/03/25 16:21:37;;;;;;;12.68;6.07;;;16.70;99.90;;;;;;6162224;23;20442;-93
2022/03/25 16:24:05;;;;;;;12.77;6.32;;;16.70;99.90;;;;;;6162551;23;20041;-93
2022/03/25 16:26:33;;;;;;;13.90;6.88;;;16.60;99.90;;;;;;6162447;23;20088;-92
2022/03/25 16:29:00;;;;;;;15.43;5.93;;;16.50;99.90;;;;;;6161936;23;20021;-92
2022/03/25 16:31:27;;;;;;;13.77;6.50;;;16.50;99.90;;;;;;6162439;23;20386;-92
2022/03/25 16:33:55;;;;;;;9.80;5.18;;;16.40;99.90;;;;;;6162097;23;20024;-92
2022/03/25 16:36:32;;;;;;;12.93;5.25;;;16.30;99.90;;;;;;6166145;23;20435;-92
2022/03/25 16:39:39;;;;;;;11.82;5.60;;;16.20;99.90;;;;;;6172453;23;20009;-93
2022/03/25 16:42:23;;;;;;;;;;;;;;;;;;;;;
2022/03/25 16:45:02;;;;;;;20.75;8.15;;;16.00;99.90;;;;;;6189054;23;20009;-93
2022/03/25 17:15:13;;;;;;;26.35;6.68;;;15.20;99.90;;;;;;6181316;23;20040;-94
2022/03/25 17:21:20;;;;;;;16.60;6.70;;;15.00;99.90;;;;;;6185417;22;20021;31
2022/03/25 17:24:28;;;;;;;14.32;5.38;;;14.90;99.90;;;;;;6175840;23;20061;-94
2022/03/25 17:27:23;;;;;;;11.90;5.63;;;14.90;99.90;;;;;;6177665;23;20005;-94
2022/03/25 17:30:11;;;;;;;11.48;6.40;;;14.80;99.90;;;;;;6189198;23;20034;-94
2022/03/25 17:33:07;;;;;;;11.95;6.18;;;14.70;99.90;;;;;;6176070;23;20013;-92
2022/03/25 17:38:48;;;;;;;14.38;6.32;;;14.50;99.90;;;;;;6222592;22;20032;-93
2022/03/25 18:04:22;;;;;;;17.77;9.38;;;13.80;99.90;;;;;;6216427;22;20031;-92
2022/03/25 18:06:50;;;;;;;19.35;9.18;;;13.80;99.90;;;;;;6168314;23;20005;-93
2022/03/25 18:09:20;;;;;;;30.73;10.05;;;13.80;99.90;;;;;;6175805;23;20004;-93
2022/03/25 18:11:50;;;;;;;22.77;8.93;;;13.80;99.90;;;;;;6175904;23;20009;-93
2022/03/25 18:14:44;;;;;;;24.05;9.43;;;13.70;99.90;;;;;;6184411;23;20052;-93
2022/03/25 18:17:57;;;;;;;;;;;;;;;;;;;;;
2022/03/25 18:23:17;;;;;;;24.27;11.05;;;13.50;99.90;;;;;;6174089;23;19916;-92
2022/03/25 18:25:48;;;;;;;26.23;10.45;;;13.40;99.90;;;;;;6144991;23;20013;-93
2022/03/25 18:28:24;;;;;;;22.13;11.02;;;13.40;99.90;;;;;;6146274;23;20431;-93
2022/03/25 18:30:54;;;;;;;27.90;10.85;;;13.30;99.90;;;;;;6111903;23;20005;-92
2022/03/25 18:33:24;;;;;;;22.75;11.32;;;13.20;99.90;;;;;;6118408;23;20005;-95
2022/03/25 19:01:09;;;;;;;29.00;14.48;;;12.70;99.90;;;;;;6221819;22;20146;-93
2022/03/25 19:12:17;;;;;;;35.90;13.82;;;12.50;99.90;;;;;;6225582;23;20481;-93
2022/03/25 19:14:47;;;;;;;33.28;13.65;;;12.50;99.90;;;;;;6167281;23;20323;-94
2022/03/25 19:25:13;;;;;;;36.28;14.63;;;12.20;99.90;;;;;;6182725;22;20350;-94
2022/03/25 19:27:40;;;;;;;33.72;15.15;;;12.20;99.90;;;;;;6166670;23;20012;-94
2022/03/25 19:30:09;;;;;;;37.15;14.30;;;12.10;99.90;;;;;;6166332;23;20009;-93
2022/03/25 19:32:44;;;;;;;41.28;16.58;;;12.10;99.90;;;;;;6165622;23;20087;-92
2022/03/25 19:35:15;;;;;;;40.80;15.32;;;12.00;99.90;;;;;;6167884;23;20020;-94
2022/03/25 19:37:42;;;;;;;32.50;16.75;;;12.00;99.90;;;;;;6167895;23;20005;-92
2022/03/25 19:40:13;;;;;;;51.22;18.00;;;11.90;99.90;;;;;;6168845;23;20426;-92
2022/03/25 19:42:48;;;;;;;43.70;18.90;;;11.90;99.90;;;;;;6171285;23;20494;-93
2022/03/25 19:45:17;;;;;;;43.83;18.55;;;11.90;99.90;;;;;;6168274;23;20036;-94
2022/03/25 19:47:45;;;;;;;37.55;17.55;;;11.90;99.90;;;;;;6169659;23;20027;-92
2022/03/25 19:50:15;;;;;;;48.47;18.23;;;11.80;99.90;;;;;;6190744;23;19993;-94
2022/03/25 20:08:04;;;;;;;37.92;16.38;;;11.70;99.90;;;;;;6223050;22;20025;-93
2022/03/25 20:19:43;;;;;;;40.10;17.70;;;11.60;99.90;;;;;;6169013;23;20055;-93
2022/03/25 20:22:15;;;;;;;47.35;19.85;;;11.50;99.90;;;;;;6087939;23;20015;-93
2022/03/25 20:30:13;;;;;;;49.38;20.70;;;11.40;99.90;;;;;;6212648;22;20087;-92
2022/03/25 20:32:40;;;;;;;48.60;19.48;;;11.40;99.90;;;;;;6204945;23;20020;-93
2022/03/25 20:35:11;;;;;;;56.97;23.05;;;11.40;99.90;;;;;;6179212;23;20016;-93
2022/03/25 20:37:39;;;;;;;58.08;23.20;;;11.30;99.90;;;;;;6205073;23;20004;-92
2022/03/25 20:40:10;;;;;;;45.42;20.20;;;11.30;99.90;;;;;;6180105;23;20097;-92
2022/03/25 20:42:38;;;;;;;45.15;19.90;;;11.20;99.90;;;;;;6180354;23;20012;-92
2022/03/25 20:45:07;;;;;;;46.35;19.30;;;11.20;99.90;;;;;;6186006;23;20024;-92